createdAt,value
2016-04-12T19:53:29.003Z,1001.86
2016-04-12T19:54:28.991Z,1001.82
2016-04-12T19:55:28.963Z,1001.82
2016-04-12T19:56:28.965Z,1001.83
2016-04-12T19:57:28.936Z,1001.86
2016-04-12T19:58:28.923Z,1001.91
2016-04-12T19:59:28.894Z,1001.89
2016-04-12T20:00:28.882Z,1001.9
2016-04-12T20:01:28.868Z,1001.9
2016-04-12T20:02:28.856Z,1001.89
2016-04-12T20:03:28.843Z,1001.9
2016-04-12T20:04:28.814Z,1001.91
2016-04-12T20:05:28.911Z,1001.93
2016-04-12T20:06:28.773Z,1001.97
2016-04-12T20:07:28.760Z,1001.96
2016-04-12T20:08:28.748Z,1002
2016-04-12T20:09:28.721Z,1001.98
2016-04-12T20:10:28.709Z,1001.92
2016-04-12T20:11:28.666Z,1001.99
2016-04-12T20:12:28.668Z,1001.93
2016-04-12T20:13:28.639Z,1001.96
2016-04-12T20:14:28.627Z,1001.96
2016-04-12T20:15:28.598Z,1001.95
2016-04-12T20:16:28.601Z,1001.87
2016-04-12T20:17:28.571Z,1001.96
2016-04-12T20:18:28.544Z,1001.96
2016-04-12T20:19:28.530Z,1001.97
2016-04-12T20:20:28.549Z,1001.96
2016-04-12T20:21:28.490Z,1002
2016-04-12T20:22:28.460Z,1001.99
2016-04-12T20:23:28.463Z,1001.97
2016-04-12T20:24:28.451Z,1001.99
2016-04-12T20:25:28.406Z,1001.93
2016-04-12T20:26:28.392Z,1001.91
2016-04-12T20:27:28.380Z,1001.92
2016-04-12T20:28:28.367Z,1001.92
2016-04-12T20:29:28.339Z,1001.91
2016-04-12T20:30:28.325Z,1001.9
2016-04-12T20:31:28.312Z,1001.94
2016-04-12T20:32:28.284Z,1001.94
2016-04-12T20:33:28.272Z,1001.96
2016-04-12T20:34:28.258Z,1001.96
2016-04-12T20:35:28.245Z,1002.02
2016-04-12T20:36:28.217Z,1001.99
2016-04-12T20:37:28.189Z,1002.05
2016-04-12T20:38:28.175Z,1002.01
2016-04-12T20:39:28.163Z,1002.03
2016-04-12T20:40:28.134Z,1002.04
2016-04-12T20:41:28.683Z,1002
2016-04-12T20:42:28.092Z,1002.01
2016-04-12T20:43:28.095Z,1002.02
2016-04-12T20:44:28.161Z,1002.05
2016-04-12T20:45:28.038Z,1002.02
2016-04-12T20:46:28.025Z,1002.01
2016-04-12T20:47:28.013Z,1001.99
2016-04-12T20:48:27.983Z,1002
2016-04-12T20:49:27.971Z,1002.02
2016-04-12T20:50:28.005Z,1002.01
2016-04-12T20:51:27.945Z,1002.04
2016-04-12T20:52:28.166Z,1002.01
2016-04-12T20:53:27.904Z,1002.04
2016-04-12T20:54:27.874Z,1002
2016-04-12T20:55:27.862Z,1002.01
2016-04-12T20:56:27.849Z,1002.03
2016-04-12T20:57:27.836Z,1002.06
2016-04-12T20:58:27.807Z,1002.05
2016-04-12T20:59:27.779Z,1002.06
2016-04-12T21:00:28.172Z,1002.06
2016-04-12T21:01:27.753Z,1002.07
2016-04-12T21:02:27.725Z,1002.01
2016-04-12T21:03:27.711Z,1002.01
2016-04-12T21:04:27.698Z,1002
2016-04-12T21:05:27.701Z,1001.95
2016-04-12T21:06:27.656Z,1001.93
2016-04-12T21:07:27.644Z,1001.92
2016-04-12T21:08:28.178Z,1001.97
2016-04-12T21:09:27.602Z,1001.94
2016-04-12T21:10:27.589Z,1001.95
2016-04-12T21:11:27.560Z,1001.94
2016-04-12T21:12:27.548Z,1001.93
2016-04-12T21:13:27.535Z,1001.93
2016-04-12T21:14:27.507Z,1001.9
2016-04-12T21:15:27.493Z,1001.91
2016-04-12T21:16:28.169Z,1001.98
2016-04-12T21:17:27.453Z,1001.97
2016-04-12T21:18:27.438Z,1001.97
2016-04-12T21:19:27.410Z,1001.97
2016-04-12T21:20:27.413Z,1001.9
2016-04-12T21:21:27.385Z,1001.92
2016-04-12T21:22:27.357Z,1001.88
2016-04-12T21:23:27.343Z,1001.84
2016-04-12T21:24:27.471Z,1001.83
2016-04-12T21:25:27.302Z,1001.84
2016-04-12T21:26:27.289Z,1001.85
2016-04-12T21:27:27.276Z,1001.85
2016-04-12T21:28:27.248Z,1001.85
2016-04-12T21:29:27.234Z,1001.88
2016-04-12T21:30:27.221Z,1001.91
2016-04-12T21:31:27.193Z,1001.93
2016-04-12T21:32:27.476Z,1002
2016-04-12T21:33:27.167Z,1002
2016-04-12T21:34:27.139Z,1002.06
2016-04-12T21:35:27.125Z,1002.06
2016-04-12T21:36:27.112Z,1002.09
2016-04-12T21:37:27.084Z,1002.07
2016-04-12T21:38:27.072Z,1002.08
2016-04-12T21:39:27.059Z,1002.05
2016-04-12T21:40:28.233Z,1002.08
2016-04-12T21:41:27.016Z,1002.13
2016-04-12T21:42:27.003Z,1002.13
2016-04-12T21:43:26.975Z,1002.13
2016-04-12T21:44:26.963Z,1002.16
2016-04-12T21:45:26.950Z,1002.17
2016-04-12T21:46:26.921Z,1002.2
2016-04-12T21:47:26.908Z,1002.21
2016-04-12T21:48:26.880Z,1002.17
2016-04-12T21:49:26.867Z,1002.22
2016-04-12T21:50:26.854Z,1002.22
2016-04-12T21:51:26.825Z,1002.26
2016-04-12T21:52:26.812Z,1002.27
2016-04-12T21:53:26.799Z,1002.27
2016-04-12T21:54:26.770Z,1002.3
2016-04-12T21:55:26.757Z,1002.37
2016-04-12T21:56:26.745Z,1002.37
2016-04-12T21:57:26.715Z,1002.4
2016-04-12T21:58:26.704Z,1002.44
2016-04-12T21:59:26.690Z,1002.41
2016-04-12T22:00:26.662Z,1002.43
2016-04-12T22:01:26.649Z,1002.38
2016-04-12T22:02:26.637Z,1002.45
2016-04-12T22:03:26.607Z,1002.39
2016-04-12T22:04:26.595Z,1002.43
2016-04-12T22:05:26.598Z,1002.43
2016-04-12T22:06:26.553Z,1002.45
2016-04-12T22:07:26.540Z,1002.48
2016-04-12T22:08:26.527Z,1002.44
2016-04-12T22:09:26.498Z,1002.46
2016-04-12T22:10:26.486Z,1002.46
2016-04-12T22:11:26.472Z,1002.44
2016-04-12T22:12:26.444Z,1002.48
2016-04-12T22:13:26.431Z,1002.46
2016-04-12T22:14:26.419Z,1002.49
2016-04-12T22:15:26.389Z,1002.47
2016-04-12T22:16:26.377Z,1002.51
2016-04-12T22:17:26.363Z,1002.53
2016-04-12T22:18:26.335Z,1002.51
2016-04-12T22:19:26.322Z,1002.49
2016-04-12T22:20:26.310Z,1002.45
2016-04-12T22:21:26.280Z,1002.43
2016-04-12T22:22:26.268Z,1002.42
2016-04-12T22:23:26.457Z,1002.42
2016-04-12T22:24:26.227Z,1002.41
2016-04-12T22:25:26.213Z,1002.43
2016-04-12T22:26:26.201Z,1002.41
2016-04-12T22:27:26.171Z,1002.46
2016-04-12T22:28:26.159Z,1002.45
2016-04-12T22:29:26.146Z,1002.5
2016-04-12T22:30:26.118Z,1002.54
2016-04-12T22:31:26.104Z,1002.51
2016-04-12T22:32:26.076Z,1002.48
2016-04-12T22:33:26.062Z,1002.49
2016-04-12T22:34:26.050Z,1002.49
2016-04-12T22:35:26.021Z,1002.46
2016-04-12T22:36:26.008Z,1002.41
2016-04-12T22:37:25.995Z,1002.44
2016-04-12T22:38:25.983Z,1002.39
2016-04-12T22:39:25.954Z,1002.42
2016-04-12T22:40:25.941Z,1002.41
2016-04-12T22:41:25.912Z,1002.43
2016-04-12T22:42:25.899Z,1002.44
2016-04-12T22:43:25.886Z,1002.46
2016-04-12T22:44:25.859Z,1002.49
2016-04-12T22:45:25.844Z,1002.48
2016-04-12T22:46:25.816Z,1002.5
2016-04-12T22:47:25.803Z,1002.55
2016-04-12T22:48:25.791Z,1002.55
2016-04-12T22:49:25.778Z,1002.57
2016-04-12T22:50:25.750Z,1002.57
2016-04-12T22:51:25.752Z,1002.55
2016-04-12T22:52:25.989Z,1002.55
2016-04-12T22:53:25.695Z,1002.58
2016-04-12T22:54:25.682Z,1002.62
2016-04-12T22:55:25.654Z,1002.61
2016-04-12T22:56:25.757Z,1002.63
2016-04-12T22:57:25.620Z,1002.65
2016-04-12T22:58:25.623Z,1002.57
2016-04-12T22:59:25.578Z,1002.55
2016-04-12T23:00:25.565Z,1002.5
2016-04-12T23:01:25.552Z,1002.48
2016-04-12T23:02:25.540Z,1002.44
2016-04-12T23:03:25.512Z,1002.44
2016-04-12T23:04:25.499Z,1002.47
2016-04-12T23:05:25.471Z,1002.54
2016-04-12T23:06:25.458Z,1002.61
2016-04-12T23:07:25.444Z,1002.65
2016-04-12T23:08:25.420Z,1002.73
2016-04-12T23:09:25.406Z,1002.71
2016-04-12T23:10:25.394Z,1002.72
2016-04-12T23:11:25.366Z,1002.73
2016-04-12T23:12:25.353Z,1002.75
2016-04-12T23:13:25.340Z,1002.77
2016-04-12T23:14:25.311Z,1002.83
2016-04-12T23:15:25.298Z,1002.85
2016-04-12T23:16:25.285Z,1002.79
2016-04-12T23:17:25.272Z,1002.84
2016-04-12T23:18:25.259Z,1002.84
2016-04-12T23:19:25.230Z,1002.87
2016-04-12T23:20:25.218Z,1002.86
2016-04-12T23:21:25.205Z,1002.89
2016-04-12T23:22:25.176Z,1002.85
2016-04-12T23:23:25.163Z,1002.88
2016-04-12T23:24:25.291Z,1002.91
2016-04-12T23:25:25.137Z,1002.9
2016-04-12T23:26:25.109Z,1002.88
2016-04-12T23:27:25.096Z,1002.9
2016-04-12T23:28:25.083Z,1002.92
2016-04-12T23:29:25.054Z,1002.92
2016-04-12T23:30:25.042Z,1002.97
2016-04-12T23:31:25.028Z,1002.96
2016-04-12T23:32:25.015Z,1002.9
2016-04-12T23:33:24.987Z,1002.92
2016-04-12T23:34:24.974Z,1002.91
2016-04-12T23:35:24.962Z,1002.88
2016-04-12T23:36:24.948Z,1002.88
2016-04-12T23:37:24.936Z,1002.83
2016-04-12T23:38:24.907Z,1002.82
2016-04-12T23:39:24.894Z,1002.79
2016-04-12T23:40:24.871Z,1002.82
2016-04-12T23:41:24.858Z,1002.82
2016-04-12T23:42:24.845Z,1002.81
2016-04-12T23:43:24.832Z,1002.81
2016-04-12T23:44:24.803Z,1002.76
2016-04-12T23:45:24.791Z,1002.81
2016-04-12T23:46:24.778Z,1002.81
2016-04-12T23:47:24.749Z,1002.76
2016-04-12T23:48:24.736Z,1002.75
2016-04-12T23:49:24.723Z,1002.76
2016-04-12T23:50:24.695Z,1002.74
2016-04-12T23:51:24.682Z,1002.73
2016-04-12T23:52:24.669Z,1002.71
2016-04-12T23:53:24.655Z,1002.68
2016-04-12T23:54:24.627Z,1002.68
2016-04-12T23:55:24.614Z,1002.64
2016-04-12T23:56:24.602Z,1002.64
2016-04-12T23:57:24.588Z,1002.61
2016-04-12T23:58:24.560Z,1002.57
2016-04-12T23:59:24.547Z,1002.59
